Terminal Aerodrome Forecast
Issued by NWS Mt. Holly, NJ

Home | Current Version | Previous Version | Text Only | Print | Product List | Glossary On
Versions: 1 2 3 4 5 6 7 8 9 10 11 12 13 14 15 16 17 18 19 20 21 22 23 24 25 26 27 28
000
FTAK31 PANC 181745
TAFABE
TAF
PABE 181745Z 1818/1918 12008KT 6SM -SN BR SCT015 BKN025 OVC035
     FM182000 12013KT 1SM -SN BR BKN008 OVC015
     FM190000 16015G23KT 3SM -FZRA BR SCT008 OVC015
     FM190400 15018G26KT 6SM -RA BR SCT008 BKN015
     FM190800 26025G37KT 2SM -SN BR SCT003 BKN008 OVC015
     FM191500 30025G35KT 6SM -SHSN BR SCT008 BKN015=

USA.gov is the U.S. government's official web portal to all federal, state and local government web resources and services.